sensor_id;sensor_type;location;lat;lon;timestamp;P1;durP1;ratioP1;P2;durP2;ratioP2
61144;SDS011;47026;51.208;3.288;2022-10-17T00:00:51;12.70;;;8.57;;
61144;SDS011;47026;51.208;3.288;2022-10-17T00:05:43;13.62;;;8.27;;
61144;SDS011;47026;51.208;3.288;2022-10-17T00:08:11;14.35;;;9.60;;
61144;SDS011;47026;51.208;3.288;2022-10-17T00:10:38;13.80;;;9.18;;
61144;SDS011;47026;51.208;3.288;2022-10-17T00:13:04;15.60;;;9.30;;
61144;SDS011;47026;51.208;3.288;2022-10-17T00:15:30;14.65;;;9.23;;
61144;SDS011;47026;51.208;3.288;2022-10-17T00:17:56;12.63;;;8.23;;
61144;SDS011;47026;51.208;3.288;2022-10-17T00:20:23;14.00;;;8.95;;
61144;SDS011;47026;51.208;3.288;2022-10-17T00:22:49;12.35;;;8.95;;
61144;SDS011;47026;51.208;3.288;2022-10-17T00:27:40;11.68;;;8.05;;
61144;SDS011;47026;51.208;3.288;2022-10-17T00:32:33;12.90;;;8.50;;
61144;SDS011;47026;51.208;3.288;2022-10-17T00:37:25;12.80;;;8.05;;
61144;SDS011;47026;51.208;3.288;2022-10-17T00:42:17;12.43;;;8.85;;
61144;SDS011;47026;51.208;3.288;2022-10-17T00:47:12;13.00;;;8.85;;
61144;SDS011;47026;51.208;3.288;2022-10-17T00:49:40;16.48;;;9.05;;
61144;SDS011;47026;51.208;3.288;2022-10-17T00:54:43;12.30;;;8.43;;
61144;SDS011;47026;51.208;3.288;2022-10-17T00:57:12;14.65;;;8.35;;
61144;SDS011;47026;51.208;3.288;2022-10-17T00:59:39;11.73;;;8.60;;
61144;SDS011;47026;51.208;3.288;2022-10-17T01:02:15;12.32;;;8.07;;
61144;SDS011;47026;51.208;3.288;2022-10-17T01:04:43;12.45;;;8.68;;
61144;SDS011;47026;51.208;3.288;2022-10-17T01:07:10;12.13;;;8.80;;
61144;SDS011;47026;51.208;3.288;2022-10-17T01:12:15;12.52;;;6.50;;
61144;SDS011;47026;51.208;3.288;2022-10-17T01:22:50;11.25;;;7.65;;
61144;SDS011;47026;51.208;3.288;2022-10-17T01:25:48;10.43;;;7.45;;
61144;SDS011;47026;51.208;3.288;2022-10-17T01:28:57;11.18;;;6.97;;
61144;SDS011;47026;51.208;3.288;2022-10-17T01:39:23;10.30;;;7.20;;
61144;SDS011;47026;51.208;3.288;2022-10-17T01:46:51;11.57;;;7.47;;
61144;SDS011;47026;51.208;3.288;2022-10-17T01:49:23;12.95;;;7.00;;
61144;SDS011;47026;51.208;3.288;2022-10-17T01:51:53;11.75;;;7.35;;
61144;SDS011;47026;51.208;3.288;2022-10-17T01:54:26;12.82;;;7.22;;
61144;SDS011;47026;51.208;3.288;2022-10-17T01:57:33;10.00;;;6.82;;
61144;SDS011;47026;51.208;3.288;2022-10-17T02:00:07;11.18;;;7.32;;
61144;SDS011;47026;51.208;3.288;2022-10-17T02:02:37;10.43;;;7.03;;
61144;SDS011;47026;51.208;3.288;2022-10-17T02:05:04;7.93;;;6.35;;
61144;SDS011;47026;51.208;3.288;2022-10-17T02:07:30;11.80;;;6.95;;
61144;SDS011;47026;51.208;3.288;2022-10-17T02:17:54;10.63;;;6.70;;
61144;SDS011;47026;51.208;3.288;2022-10-17T02:20:42;9.65;;;6.70;;
61144;SDS011;47026;51.208;3.288;2022-10-17T02:29:05;12.32;;;6.60;;
61144;SDS011;47026;51.208;3.288;2022-10-17T02:31:43;9.98;;;7.40;;
61144;SDS011;47026;51.208;3.288;2022-10-17T02:34:55;9.25;;;6.82;;
61144;SDS011;47026;51.208;3.288;2022-10-17T02:37:04;12.02;;;6.40;;
61144;SDS011;47026;51.208;3.288;2022-10-17T02:39:32;14.50;;;7.62;;
61144;SDS011;47026;51.208;3.288;2022-10-17T02:42:01;11.75;;;7.07;;
61144;SDS011;47026;51.208;3.288;2022-10-17T02:44:29;9.80;;;6.40;;
61144;SDS011;47026;51.208;3.288;2022-10-17T02:49:43;10.93;;;7.07;;
61144;SDS011;47026;51.208;3.288;2022-10-17T02:52:15;12.82;;;6.70;;
61144;SDS011;47026;51.208;3.288;2022-10-17T02:55:09;9.85;;;6.47;;
61144;SDS011;47026;51.208;3.288;2022-10-17T02:57:47;11.68;;;6.37;;
61144;SDS011;47026;51.208;3.288;2022-10-17T03:00:18;11.10;;;6.93;;
61144;SDS011;47026;51.208;3.288;2022-10-17T03:02:46;10.35;;;7.43;;
61144;SDS011;47026;51.208;3.288;2022-10-17T03:05:20;10.32;;;7.05;;
61144;SDS011;47026;51.208;3.288;2022-10-17T03:07:50;9.75;;;6.57;;
61144;SDS011;47026;51.208;3.288;2022-10-17T03:10:17;9.95;;;6.85;;
61144;SDS011;47026;51.208;3.288;2022-10-17T03:12:43;10.02;;;6.60;;
61144;SDS011;47026;51.208;3.288;2022-10-17T03:15:09;10.68;;;6.68;;
61144;SDS011;47026;51.208;3.288;2022-10-17T03:17:36;7.50;;;5.82;;
61144;SDS011;47026;51.208;3.288;2022-10-17T03:20:03;9.05;;;6.57;;
61144;SDS011;47026;51.208;3.288;2022-10-17T03:22:29;8.93;;;6.72;;
61144;SDS011;47026;51.208;3.288;2022-10-17T03:27:20;12.13;;;6.47;;
61144;SDS011;47026;51.208;3.288;2022-10-17T03:32:11;10.95;;;6.57;;
61144;SDS011;47026;51.208;3.288;2022-10-17T03:34:37;12.85;;;7.37;;
61144;SDS011;47026;51.208;3.288;2022-10-17T03:37:02;11.80;;;6.60;;
61144;SDS011;47026;51.208;3.288;2022-10-17T03:39:28;10.27;;;6.97;;
61144;SDS011;47026;51.208;3.288;2022-10-17T03:44:19;10.15;;;6.70;;
61144;SDS011;47026;51.208;3.288;2022-10-17T03:49:10;11.15;;;6.65;;
61144;SDS011;47026;51.208;3.288;2022-10-17T03:54:01;9.32;;;6.75;;
61144;SDS011;47026;51.208;3.288;2022-10-17T03:58:53;10.52;;;6.97;;
61144;SDS011;47026;51.208;3.288;2022-10-17T04:01:19;9.75;;;6.93;;
61144;SDS011;47026;51.208;3.288;2022-10-17T04:03:49;13.50;;;7.50;;
61144;SDS011;47026;51.208;3.288;2022-10-17T04:06:15;12.93;;;7.43;;
61144;SDS011;47026;51.208;3.288;2022-10-17T04:08:41;11.02;;;7.80;;
61144;SDS011;47026;51.208;3.288;2022-10-17T04:11:07;12.70;;;7.55;;
61144;SDS011;47026;51.208;3.288;2022-10-17T04:13:35;10.80;;;6.75;;
61144;SDS011;47026;51.208;3.288;2022-10-17T04:16:02;9.02;;;7.43;;
61144;SDS011;47026;51.208;3.288;2022-10-17T04:18:30;12.37;;;7.32;;
61144;SDS011;47026;51.208;3.288;2022-10-17T04:20:55;9.70;;;7.07;;
61144;SDS011;47026;51.208;3.288;2022-10-17T04:23:21;11.20;;;7.03;;
61144;SDS011;47026;51.208;3.288;2022-10-17T04:25:47;10.13;;;6.55;;
61144;SDS011;47026;51.208;3.288;2022-10-17T04:28:13;9.75;;;7.20;;
61144;SDS011;47026;51.208;3.288;2022-10-17T04:30:39;10.45;;;6.87;;
61144;SDS011;47026;51.208;3.288;2022-10-17T04:35:30;15.00;;;8.18;;
61144;SDS011;47026;51.208;3.288;2022-10-17T04:40:21;11.40;;;7.93;;
61144;SDS011;47026;51.208;3.288;2022-10-17T04:45:13;13.07;;;7.07;;
61144;SDS011;47026;51.208;3.288;2022-10-17T04:50:04;12.75;;;7.43;;
61144;SDS011;47026;51.208;3.288;2022-10-17T04:52:30;11.48;;;7.10;;
61144;SDS011;47026;51.208;3.288;2022-10-17T04:54:56;10.25;;;7.37;;
61144;SDS011;47026;51.208;3.288;2022-10-17T04:57:22;9.55;;;7.20;;
61144;SDS011;47026;51.208;3.288;2022-10-17T04:59:49;11.38;;;6.60;;
61144;SDS011;47026;51.208;3.288;2022-10-17T05:02:15;12.10;;;6.80;;
61144;SDS011;47026;51.208;3.288;2022-10-17T05:04:41;11.55;;;7.30;;
61144;SDS011;47026;51.208;3.288;2022-10-17T05:07:06;9.45;;;6.75;;
61144;SDS011;47026;51.208;3.288;2022-10-17T05:11:57;9.38;;;6.93;;
61144;SDS011;47026;51.208;3.288;2022-10-17T05:14:23;10.60;;;7.50;;
61144;SDS011;47026;51.208;3.288;2022-10-17T05:16:49;12.68;;;8.25;;
